Time;durP1;ratioP1;P1;durP2;ratioP2;P2;SDS_P1;SDS_P2;PMS_P1;PMS_P2;Temp;Humidity;BMP_temperature;BMP_pressure;BME280_temperature;BME280_humidity;BME280_pressure;Samples;Min_cycle;Max_cycle;Signal;HPM_P1;HPM_P2
2021/05/11 00:01:48;;;;;;;3.10;2.80;;;16.20;99.90;;;;;;5025680;28;20187;-80
2021/05/11 00:04:13;;;;;;;2.53;2.33;;;16.20;99.90;;;;;;5024394;28;20820;-78
2021/05/11 00:06:40;;;;;;;2.25;2.05;;;16.20;99.90;;;;;;5024267;28;20207;-80
2021/05/11 00:09:07;;;;;;;2.72;2.53;;;16.10;99.90;;;;;;5025199;28;20703;-79
2021/05/11 00:11:34;;;;;;;2.75;2.55;;;16.10;99.90;;;;;;5026192;28;20676;-81
2021/05/11 00:14:00;;;;;;;2.90;2.40;;;16.10;99.90;;;;;;5040840;28;20201;-79
2021/05/11 00:16:25;;;;;;;2.50;2.30;;;16.00;99.90;;;;;;5041197;28;20203;-81
2021/05/11 00:18:51;;;;;;;3.15;2.47;;;16.00;99.90;;;;;;5025932;28;20209;-79
2021/05/11 00:21:17;;;;;;;2.85;2.65;;;16.00;99.90;;;;;;5024639;28;20194;-81
2021/05/11 00:23:42;;;;;;;3.20;2.47;;;15.90;99.90;;;;;;5024478;28;20179;-81
2021/05/11 00:26:08;;;;;;;2.75;2.53;;;15.80;99.90;;;;;;5025993;28;20221;-80
2021/05/11 00:28:33;;;;;;;2.45;2.25;;;15.70;99.90;;;;;;5026067;28;20191;-80
2021/05/11 00:30:59;;;;;;;2.60;2.40;;;15.70;99.90;;;;;;5025673;28;20210;-82
2021/05/11 00:33:25;;;;;;;3.67;2.72;;;15.60;99.90;;;;;;5025789;28;20240;-80
2021/05/11 00:35:50;;;;;;;2.70;2.45;;;15.70;99.90;;;;;;5024314;28;21650;-79
2021/05/11 00:38:16;;;;;;;3.05;2.72;;;15.70;99.90;;;;;;5024516;28;20198;-78
2021/05/11 00:40:41;;;;;;;4.45;2.20;;;15.70;99.90;;;;;;5024745;28;20289;-82
2021/05/11 00:43:07;;;;;;;2.45;2.25;;;15.80;99.90;;;;;;5026295;28;20259;-79
2021/05/11 00:45:33;;;;;;;3.50;2.50;;;15.80;99.90;;;;;;5024568;28;20200;-80
2021/05/11 00:47:58;;;;;;;2.75;2.55;;;15.90;99.90;;;;;;5025425;28;20556;-79
2021/05/11 00:50:24;;;;;;;2.30;2.10;;;15.90;99.90;;;;;;5024998;28;20787;-81
2021/05/11 00:52:50;;;;;;;2.80;2.60;;;16.00;99.90;;;;;;5025657;28;21118;-79
2021/05/11 00:55:16;;;;;;;3.30;2.75;;;15.90;99.90;;;;;;5023385;28;20277;-80
2021/05/11 00:57:42;;;;;;;3.00;2.67;;;15.90;99.90;;;;;;5025059;28;20297;-77
2021/05/11 01:00:09;;;;;;;2.50;2.30;;;15.90;99.90;;;;;;5025188;28;20711;-81
2021/05/11 01:02:36;;;;;;;2.38;2.05;;;15.90;99.90;;;;;;5026560;28;20174;-80
2021/05/11 01:05:03;;;;;;;2.70;2.50;;;16.00;99.90;;;;;;5025922;28;20582;-78
2021/05/11 01:07:29;;;;;;;2.50;2.30;;;16.00;99.90;;;;;;5025105;28;20261;-82
2021/05/11 01:09:54;;;;;;;2.63;2.42;;;16.00;99.90;;;;;;5025151;28;20700;-81
2021/05/11 01:12:21;;;;;;;2.60;2.40;;;15.90;99.90;;;;;;5026699;28;20237;-78
2021/05/11 01:14:47;;;;;;;2.40;2.20;;;16.00;99.90;;;;;;5024891;28;20171;-82
2021/05/11 01:17:29;;;;;;;2.22;1.98;;;15.90;99.90;;;;;;5026504;28;20306;-76
2021/05/11 01:19:58;;;;;;;3.80;3.00;;;16.00;99.90;;;;;;5024870;28;20209;-82
2021/05/11 01:22:40;;;;;;;2.63;2.42;;;16.00;99.90;;;;;;5024502;28;20190;-79
2021/05/11 01:25:09;;;;;;;2.42;2.22;;;15.80;99.90;;;;;;5024456;28;20179;-82
2021/05/11 01:27:52;;;;;;;2.67;2.47;;;15.60;99.90;;;;;;5033312;28;20218;-79
2021/05/11 01:52:06;;;;;;;3.70;2.13;;;15.50;99.90;;;;;;5029605;28;20205;-82
2021/05/11 01:54:49;;;;;;;2.42;1.65;;;15.50;99.90;;;;;;5027840;28;20170;-82
2021/05/11 02:24:20;;;;;;;1.50;1.40;;;15.10;99.90;;;;;;5032255;28;20213;-79
2021/05/11 02:26:45;;;;;;;1.02;0.95;;;15.10;99.90;;;;;;5031633;28;20199;-81
2021/05/11 02:29:11;;;;;;;1.25;1.10;;;15.10;99.90;;;;;;5030445;28;20230;-81
2021/05/11 02:31:37;;;;;;;3.28;1.85;;;15.10;99.90;;;;;;5030862;28;20625;-79
2021/05/11 02:34:02;;;;;;;1.20;1.10;;;15.10;99.90;;;;;;5031727;28;20186;-81
2021/05/11 02:36:28;;;;;;;1.20;1.10;;;15.20;99.90;;;;;;5031334;28;20210;-79
2021/05/11 02:38:53;;;;;;;1.27;1.17;;;15.20;99.90;;;;;;5030129;28;20187;-80
2021/05/11 02:41:19;;;;;;;1.52;1.35;;;15.20;99.90;;;;;;5031280;28;20191;-80
2021/05/11 02:43:45;;;;;;;2.35;1.63;;;15.10;99.90;;;;;;5031085;28;20175;-81
2021/05/11 02:46:10;;;;;;;2.33;1.50;;;15.10;99.90;;;;;;5029568;28;20217;-80
2021/05/11 02:48:36;;;;;;;1.77;1.50;;;15.10;99.90;;;;;;5029836;28;20190;-82
2021/05/11 02:51:02;;;;;;;1.92;1.50;;;15.00;99.90;;;;;;5029601;28;20594;-80
2021/05/11 02:53:27;;;;;;;1.90;1.55;;;15.00;99.90;;;;;;5031290;28;20179;-80
2021/05/11 02:55:53;;;;;;;3.53;1.60;;;14.90;99.90;;;;;;5029240;28;20213;-80
2021/05/11 02:58:18;;;;;;;1.73;1.52;;;14.90;99.90;;;;;;5030507;28;20843;-80
2021/05/11 03:00:45;;;;;;;2.00;1.70;;;14.80;99.90;;;;;;5031110;28;20254;-81
2021/05/11 03:03:10;;;;;;;1.60;1.50;;;14.90;99.90;;;;;;5030196;28;20683;-79
2021/05/11 03:05:36;;;;;;;1.83;1.63;;;14.80;99.90;;;;;;5029006;28;20186;-81
2021/05/11 03:08:02;;;;;;;1.50;1.40;;;14.70;99.90;;;;;;5028602;28;20680;-79
2021/05/11 03:10:27;;;;;;;1.95;1.65;;;14.60;99.90;;;;;;5029845;28;20459;-80
2021/05/11 03:12:53;;;;;;;2.22;1.90;;;14.70;99.90;;;;;;5029435;28;20218;-79
2021/05/11 03:15:19;;;;;;;2.28;1.40;;;14.80;99.90;;;;;;5028428;28;20206;-81
2021/05/11 03:17:44;;;;;;;1.45;1.35;;;14.70;99.90;;;;;;5028842;28;20167;-80
2021/05/11 03:20:12;;;;;;;3.13;1.80;;;14.60;99.90;;;;;;5027853;28;20190;-80
2021/05/11 03:22:38;;;;;;;2.10;1.77;;;14.60;99.90;;;;;;5028508;28;20179;-79
2021/05/11 03:25:04;;;;;;;2.30;1.90;;;14.60;99.90;;;;;;5029918;28;20183;-82
2021/05/11 03:27:30;;;;;;;2.10;1.90;;;14.60;99.90;;;;;;5028577;28;20307;-81
2021/05/11 03:29:56;;;;;;;2.33;1.92;;;14.60;99.90;;;;;;5029833;28;20357;-79
2021/05/11 03:32:21;;;;;;;2.22;2.03;;;14.60;99.90;;;;;;5028361;28;20183;-78
2021/05/11 03:34:47;;;;;;;1.85;1.75;;;14.50;99.90;;;;;;5028401;28;20189;-81
2021/05/11 03:37:13;;;;;;;3.15;1.88;;;14.50;99.90;;;;;;5029320;28;20221;-81
2021/05/11 03:39:40;;;;;;;1.70;1.60;;;14.60;99.90;;;;;;5029591;28;20183;-80
2021/05/11 03:42:24;;;;;;;2.55;1.80;;;14.60;99.90;;;;;;5029867;28;20659;-80
2021/05/11 03:44:54;;;;;;;2.55;1.75;;;14.50;99.90;;;;;;5029179;28;20265;-81
2021/05/11 03:47:21;;;;;;;1.77;1.60;;;14.50;99.90;;;;;;5035520;28;20213;-78
2021/05/11 03:49:46;;;;;;;1.67;1.58;;;14.50;99.90;;;;;;5035526;28;20203;-79
2021/05/11 03:52:12;;;;;;;2.17;1.98;;;14.50;99.90;;;;;;5035731;28;20205;-78
2021/05/11 03:54:38;;;;;;;2.33;1.73;;;14.50;99.90;;;;;;5034220;28;20183;-78
2021/05/11 03:57:04;;;;;;;2.33;1.60;;;14.50;99.90;;;;;;5033924;28;20218;-77
2021/05/11 03:59:30;;;;;;;1.77;1.67;;;14.50;99.90;;;;;;5035515;28;20195;-77
2021/05/11 04:01:56;;;;;;;2.22;1.67;;;14.60;99.90;;;;;;5034273;28;20179;-77
2021/05/11 04:04:22;;;;;;;1.80;1.58;;;14.70;99.90;;;;;;5034413;28;20190;-78
2021/05/11 04:06:48;;;;;;;3.05;1.98;;;14.60;99.90;;;;;;5034502;28;20205;-78
2021/05/11 04:12:03;;;;;;;2.40;1.95;;;14.50;99.90;;;;;;5034015;28;20313;-78
2021/05/11 04:17:11;;;;;;;2.10;1.70;;;14.50;99.90;;;;;;5034102;28;20217;-78
2021/05/11 04:19:37;;;;;;;3.03;2.22;;;14.50;99.90;;;;;;5032363;28;20186;-78
2021/05/11 04:22:02;;;;;;;2.28;2.08;;;14.50;99.90;;;;;;5032965;28;20194;-78
2021/05/11 04:24:29;;;;;;;2.25;1.70;;;14.50;99.90;;;;;;5033019;28;20221;-77
2021/05/11 04:26:55;;;;;;;2.70;1.92;;;14.50;99.90;;;;;;5032054;28;20202;-78
2021/05/11 04:29:21;;;;;;;2.10;1.90;;;14.50;99.90;;;;;;5033998;28;20203;-78
2021/05/11 04:31:47;;;;;;;2.20;2.00;;;14.50;99.90;;;;;;5033962;28;20179;-77
2021/05/11 04:34:12;;;;;;;2.08;1.85;;;14.50;99.90;;;;;;5034170;28;20260;-78
2021/05/11 04:36:38;;;;;;;2.85;1.80;;;14.50;99.90;;;;;;5033503;28;20230;-79
2021/05/11 04:39:05;;;;;;;2.08;1.85;;;14.60;99.90;;;;;;5034267;28;20199;-77
2021/05/11 04:41:31;;;;;;;2.30;2.08;;;14.60;99.90;;;;;;5033483;28;20187;-78
2021/05/11 04:43:58;;;;;;;2.70;2.50;;;14.60;99.90;;;;;;5032985;28;20182;-78
2021/05/11 04:46:28;;;;;;;3.88;2.22;;;14.60;99.90;;;;;;5033505;28;20289;-78
2021/05/11 04:48:54;;;;;;;2.10;1.88;;;14.60;99.90;;;;;;5032697;28;20206;-78
2021/05/11 04:51:20;;;;;;;2.60;2.38;;;14.70;99.90;;;;;;5031607;28;20270;-77
2021/05/11 04:53:47;;;;;;;2.50;2.25;;;14.70;99.90;;;;;;5031595;28;20202;-77
2021/05/11 04:56:13;;;;;;;2.20;2.00;;;14.80;99.90;;;;;;5031940;28;20203;-79
2021/05/11 04:58:39;;;;;;;3.55;2.47;;;14.80;99.90;;;;;;5032626;28;20190;-77
2021/05/11 05:01:05;;;;;;;4.38;1.85;;;15.00;99.90;;;;;;5032441;28;20190;-78
2021/05/11 05:03:38;;;;;;;2.50;2.28;;;15.00;99.90;;;;;;5034432;28;20183;-78
2021/05/11 05:06:05;;;;;;;3.28;2.17;;;15.00;99.90;;;;;;5033028;28;20253;-78
2021/05/11 05:08:31;;;;;;;3.15;2.85;;;15.20;99.90;;;;;;5032262;28;20187;-77
2021/05/11 05:10:57;;;;;;;3.30;2.33;;;15.10;99.90;;;;;;5031548;28;20276;-79
2021/05/11 05:13:25;;;;;;;2.30;2.10;;;15.10;99.90;;;;;;5032362;28;20193;-77
2021/05/11 05:15:56;;;;;;;2.97;2.42;;;15.00;99.90;;;;;;5033896;28;20214;-79
2021/05/11 05:18:22;;;;;;;5.10;2.38;;;15.10;99.90;;;;;;5033181;28;20919;-78
2021/05/11 05:20:50;;;;;;;2.65;2.30;;;15.00;99.90;;;;;;5034110;28;20274;-77
2021/05/11 05:23:17;;;;;;;3.58;2.55;;;14.80;99.90;;;;;;5033320;28;20178;-77
2021/05/11 05:25:50;;;;;;;3.45;2.35;;;14.60;99.90;;;;;;5044667;28;20590;-79
2021/05/11 05:28:16;;;;;;;2.17;1.98;;;14.50;99.90;;;;;;5031786;28;20324;-79
2021/05/11 05:30:41;;;;;;;2.05;1.85;;;14.40;99.90;;;;;;5032886;28;20222;-78
2021/05/11 05:33:07;;;;;;;3.60;1.90;;;14.20;99.90;;;;;;5032668;28;20193;-77
2021/05/11 05:35:33;;;;;;;1.63;1.40;;;14.20;99.90;;;;;;5033352;28;20521;-80
2021/05/11 05:37:59;;;;;;;2.10;1.90;;;14.20;99.90;;;;;;5034668;28;20191;-79
2021/05/11 05:40:25;;;;;;;2.65;1.80;;;14.20;99.90;;;;;;5035225;28;20252;-79
2021/05/11 05:42:51;;;;;;;1.92;1.63;;;14.20;99.90;;;;;;5036616;28;20206;-77
2021/05/11 05:45:17;;;;;;;2.65;1.73;;;14.30;99.90;;;;;;5034619;28;20183;-80
2021/05/11 05:47:52;;;;;;;4.60;2.63;;;14.40;99.90;;;;;;5034205;28;20274;-80
2021/05/11 05:50:24;;;;;;;2.83;1.90;;;14.40;99.90;;;;;;5034744;28;20202;-76
2021/05/11 05:52:54;;;;;;;2.00;1.75;;;14.60;99.90;;;;;;5036256;28;20175;-76
2021/05/11 05:55:20;;;;;;;1.75;1.65;;;14.70;99.90;;;;;;5035625;28;20179;-78
2021/05/11 05:58:06;;;;;;;1.60;1.50;;;14.90;99.90;;;;;;5038135;28;20237;-78
2021/05/11 06:00:32;;;;;;;2.00;1.80;;;15.10;99.90;;;;;;5036228;28;20198;-78
2021/05/11 06:03:18;;;;;;;2.65;1.55;;;15.30;99.90;;;;;;5037311;28;20178;-79
2021/05/11 06:05:44;;;;;;;2.15;1.75;;;15.30;99.90;;;;;;5039569;28;20221;-78
2021/05/11 06:08:09;;;;;;;2.33;2.10;;;15.40;99.90;;;;;;5038999;28;20210;-77
2021/05/11 06:10:36;;;;;;;1.60;1.50;;;15.40;99.90;;;;;;5038739;28;20305;-77
2021/05/11 06:13:24;;;;;;;3.17;2.00;;;15.50;99.90;;;;;;5039600;28;20202;-79
2021/05/11 06:18:34;;;;;;;1.50;1.27;;;15.50;99.90;;;;;;5041313;28;20252;-79
2021/05/11 06:21:01;;;;;;;10.90;2.10;;;15.60;99.90;;;;;;5040700;28;20187;-76
2021/05/11 06:23:26;;;;;;;2.08;1.40;;;15.60;99.90;;;;;;5044104;28;20187;-76
2021/05/11 06:25:52;;;;;;;1.40;1.30;;;15.80;99.90;;;;;;5043512;28;20226;-76
2021/05/11 06:28:17;;;;;;;1.40;1.30;;;15.90;99.90;;;;;;5047951;28;20194;-76
2021/05/11 06:30:43;;;;;;;1.48;1.38;;;16.00;99.90;;;;;;5044402;28;20225;-75
2021/05/11 06:33:09;;;;;;;1.58;1.40;;;16.10;99.90;;;;;;5039980;28;20198;-78
2021/05/11 06:35:35;;;;;;;1.85;1.75;;;16.20;99.90;;;;;;5035884;28;20209;-77
2021/05/11 06:38:01;;;;;;;1.70;1.55;;;16.20;99.90;;;;;;5035576;28;20202;-79
2021/05/11 06:40:29;;;;;;;2.42;1.88;;;16.30;99.90;;;;;;5034955;28;20233;-79
2021/05/11 06:42:56;;;;;;;1.73;1.30;;;16.40;99.90;;;;;;5036107;28;20178;-78
2021/05/11 06:48:23;;;;;;;2.00;1.77;;;16.20;99.90;;;;;;5035556;28;20206;-79
2021/05/11 06:53:39;;;;;;;2.33;1.50;;;16.60;99.90;;;;;;5022563;28;20191;-78
2021/05/11 06:56:08;;;;;;;1.85;1.48;;;17.00;99.90;;;;;;5050628;28;20196;-80
2021/05/11 06:58:34;;;;;;;2.97;1.67;;;16.90;99.90;;;;;;5041959;28;20171;-77
2021/05/11 07:00:59;;;;;;;1.65;1.55;;;16.70;99.90;;;;;;5033079;28;20624;-79
2021/05/11 07:03:25;;;;;;;1.80;1.40;;;16.50;99.90;;;;;;5033951;28;20529;-76
2021/05/11 07:05:52;;;;;;;1.27;1.17;;;16.30;99.90;;;;;;5031370;28;20723;-79
2021/05/11 07:10:51;;;;;;;1.42;1.33;;;16.30;99.90;;;;;;5029373;28;20218;-76
2021/05/11 07:13:17;;;;;;;2.53;1.50;;;16.30;99.90;;;;;;5030540;28;20551;-78
2021/05/11 07:15:45;;;;;;;1.65;1.45;;;16.10;99.90;;;;;;5032101;28;20224;-79
2021/05/11 07:18:12;;;;;;;1.67;1.45;;;16.10;99.90;;;;;;5030344;28;20477;-78
2021/05/11 07:20:39;;;;;;;1.30;1.20;;;15.90;99.90;;;;;;5046957;28;20198;-77
2021/05/11 07:23:04;;;;;;;1.73;1.30;;;15.90;99.90;;;;;;5030962;28;21102;-77
2021/05/11 07:31:04;;;;;;;1.50;1.40;;;15.90;99.90;;;;;;5031919;28;20198;-79
2021/05/11 07:33:36;;;;;;;1.60;1.50;;;15.90;99.90;;;;;;5031456;28;20541;-78
2021/05/11 07:36:02;;;;;;;1.52;1.42;;;15.70;99.90;;;;;;5029967;28;20205;-79
2021/05/11 07:38:28;;;;;;;1.50;1.40;;;15.60;99.90;;;;;;5028011;28;20393;-77
2021/05/11 07:40:54;;;;;;;1.23;1.13;;;15.80;99.90;;;;;;5027424;28;20240;-77
2021/05/11 07:43:22;;;;;;;1.45;1.30;;;15.80;99.90;;;;;;5027548;28;20190;-78
2021/05/11 08:04:27;;;;;;;1.60;1.17;;;17.40;99.90;;;;;;5027692;28;20195;-78
2021/05/11 08:17:40;;;;;;;1.48;1.38;;;16.10;99.90;;;;;;5026435;28;20579;-78
2021/05/11 08:20:18;;;;;;;1.65;1.50;;;16.00;99.90;;;;;;5023449;28;20182;-79
2021/05/11 08:23:06;;;;;;;1.67;1.50;;;16.00;99.90;;;;;;5023926;28;20185;-79
2021/05/11 08:28:16;;;;;;;3.40;1.88;;;16.20;99.90;;;;;;5025797;28;20209;-78
2021/05/11 08:30:41;;;;;;;2.97;1.45;;;16.30;99.90;;;;;;5026342;28;20202;-78
2021/05/11 08:33:07;;;;;;;2.53;1.70;;;16.40;99.90;;;;;;5026430;28;20248;-76
2021/05/11 08:35:33;;;;;;;1.30;1.20;;;16.40;99.90;;;;;;5027961;28;20182;-77
2021/05/11 08:37:58;;;;;;;1.65;1.50;;;16.60;99.90;;;;;;5026804;28;20250;-80
2021/05/11 08:40:25;;;;;;;3.45;1.70;;;16.60;99.90;;;;;;5025476;28;20555;-77
2021/05/11 08:42:51;;;;;;;1.40;1.30;;;16.70;99.90;;;;;;5025332;28;20924;-79
2021/05/11 08:45:17;;;;;;;1.75;1.50;;;16.60;99.90;;;;;;5025480;28;20190;-77
2021/05/11 08:47:50;;;;;;;2.40;1.73;;;16.30;99.90;;;;;;5026639;28;20770;-80
2021/05/11 08:50:23;;;;;;;1.63;1.33;;;16.50;99.90;;;;;;5026786;28;20226;-80
2021/05/11 09:04:36;;;;;;;5.75;1.90;;;17.60;99.90;;;;;;5028585;28;20668;-78
2021/05/11 09:07:01;;;;;;;1.67;1.55;;;17.90;99.90;;;;;;5028948;28;20276;-77
2021/05/11 09:25:45;;;;;;;2.15;1.58;;;18.10;99.90;;;;;;5031593;28;20190;-79
2021/05/11 09:28:34;;;;;;;2.13;1.70;;;18.30;99.90;;;;;;5032270;28;20894;-79
2021/05/11 09:31:22;;;;;;;1.42;1.33;;;18.50;99.90;;;;;;5031547;28;20248;-78
2021/05/11 09:33:57;;;;;;;1.48;1.38;;;18.30;99.90;;;;;;5029051;28;20178;-78
2021/05/11 09:56:47;;;;;;;3.00;1.35;;;19.30;99.90;;;;;;5063970;28;20655;-64
2021/05/11 10:10:33;;;;;;;2.78;1.60;;;18.60;99.90;;;;;;5062393;28;20166;-64
2021/05/11 10:49:21;;;;;;;1.67;1.40;;;19.50;99.90;;;;;;5056857;28;20201;-64
2021/05/11 10:52:13;;;;;;;1.92;1.33;;;19.80;99.90;;;;;;5046652;28;20629;-62
2021/05/11 10:54:44;;;;;;;2.50;1.48;;;19.80;99.90;;;;;;5047368;28;20206;-63
2021/05/11 11:00:39;;;;;;;2.47;1.98;;;19.90;99.90;;;;;;5047784;28;20320;-62
2021/05/11 11:03:20;;;;;;;2.00;1.60;;;19.80;99.90;;;;;;5047096;28;20280;-65
2021/05/11 11:05:56;;;;;;;2.65;1.73;;;19.80;99.90;;;;;;5047117;28;20181;-64
2021/05/11 11:08:41;;;;;;;2.63;1.63;;;19.80;99.90;;;;;;5047970;28;20282;-64
2021/05/11 11:11:13;;;;;;;2.45;2.05;;;19.50;99.90;;;;;;5049085;28;20189;-65
2021/05/11 11:13:51;;;;;;;2.47;2.28;;;19.60;99.90;;;;;;5046659;28;20623;-64
2021/05/11 11:16:17;;;;;;;2.55;2.03;;;19.30;99.90;;;;;;5046684;28;20648;-65
2021/05/11 11:18:44;;;;;;;2.20;2.00;;;19.20;99.90;;;;;;5047649;28;20251;-63
2021/05/11 11:23:46;;;;;;;1.63;1.52;;;18.80;99.90;;;;;;5047268;28;20197;-64
2021/05/11 11:26:13;;;;;;;1.92;1.75;;;18.50;99.90;;;;;;5047439;28;20182;-65
2021/05/11 11:28:40;;;;;;;1.90;1.80;;;18.50;99.90;;;;;;5047220;28;20214;-65
2021/05/11 11:31:26;;;;;;;2.13;1.92;;;18.80;99.90;;;;;;5047378;28;20194;-63
2021/05/11 11:33:52;;;;;;;4.15;1.85;;;18.80;99.90;;;;;;5046194;28;20212;-62
2021/05/11 11:36:32;;;;;;;3.10;1.70;;;18.60;99.90;;;;;;5046071;28;20186;-63
2021/05/11 11:39:01;;;;;;;2.30;2.10;;;18.50;99.90;;;;;;5044936;28;20210;-64
2021/05/11 11:41:27;;;;;;;2.33;2.05;;;18.50;99.90;;;;;;5046566;28;20174;-62
2021/05/11 11:43:54;;;;;;;2.53;2.25;;;18.20;99.90;;;;;;5046407;28;20190;-65
2021/05/11 11:46:29;;;;;;;2.35;2.15;;;18.10;99.90;;;;;;5046552;28;20691;-64
2021/05/11 11:49:02;;;;;;;2.40;2.17;;;17.80;99.90;;;;;;5045773;28;20189;-65
2021/05/11 11:51:31;;;;;;;1.90;1.75;;;17.70;99.90;;;;;;5045537;28;20224;-62
2021/05/11 11:54:29;;;;;;;5.15;1.95;;;17.80;99.90;;;;;;5045160;28;20190;-65
2021/05/11 11:59:24;;;;;;;1.98;1.77;;;18.40;99.90;;;;;;5048325;28;20661;-64
2021/05/11 12:02:01;;;;;;;2.00;1.80;;;18.40;99.90;;;;;;5046263;28;20181;-64
2021/05/11 12:04:28;;;;;;;1.88;1.67;;;18.40;99.90;;;;;;5045663;28;20189;-63
2021/05/11 12:07:00;;;;;;;2.30;2.10;;;18.10;99.90;;;;;;5044406;28;20186;-62
2021/05/11 12:09:26;;;;;;;2.67;1.85;;;18.00;99.90;;;;;;5044636;28;20189;-64
2021/05/11 12:11:52;;;;;;;2.20;1.60;;;18.10;99.90;;;;;;5044860;28;20641;-63
2021/05/11 12:14:18;;;;;;;2.00;1.77;;;18.40;99.90;;;;;;5045228;28;20518;-63
2021/05/11 12:16:46;;;;;;;1.70;1.60;;;18.70;99.90;;;;;;5044948;28;20182;-62
2021/05/11 12:19:22;;;;;;;1.95;1.52;;;18.80;99.90;;;;;;5045903;28;20683;-65
2021/05/11 12:22:02;;;;;;;2.00;1.67;;;18.70;99.90;;;;;;5043130;28;20637;-61
2021/05/11 12:24:29;;;;;;;3.55;1.40;;;18.60;99.90;;;;;;5042685;28;20186;-62
2021/05/11 12:27:22;;;;;;;1.60;1.27;;;18.40;99.90;;;;;;5044919;28;20629;-62
2021/05/11 12:30:17;;;;;;;1.88;1.75;;;18.30;99.90;;;;;;5045787;28;20186;-64
2021/05/11 12:32:43;;;;;;;1.48;1.38;;;18.40;99.90;;;;;;5043829;28;20202;-64
2021/05/11 12:35:16;;;;;;;2.75;1.33;;;18.40;99.90;;;;;;5045025;28;20190;-63
2021/05/11 12:37:59;;;;;;;1.45;1.10;;;18.30;99.90;;;;;;5044774;28;20214;-64
2021/05/11 12:40:40;;;;;;;1.15;1.00;;;18.10;99.90;;;;;;5045273;28;20583;-61
2021/05/11 12:43:05;;;;;;;1.30;1.20;;;18.20;99.90;;;;;;5045223;28;20217;-63
2021/05/11 12:45:38;;;;;;;2.08;1.00;;;18.20;99.90;;;;;;5042793;28;20213;-62
2021/05/11 12:48:05;;;;;;;2.50;1.45;;;18.20;99.90;;;;;;5044724;28;20713;-64
2021/05/11 12:50:37;;;;;;;2.88;1.48;;;18.10;99.90;;;;;;5045051;28;20188;-65
2021/05/11 12:53:38;;;;;;;3.03;1.50;;;18.20;99.90;;;;;;5044465;28;20194;-64
2021/05/11 13:01:34;;;;;;;1.70;1.27;;;18.10;99.90;;;;;;5045110;28;20207;-63
2021/05/11 13:04:56;;;;;;;1.58;1.17;;;18.10;99.90;;;;;;5043884;28;20198;-64
2021/05/11 13:15:33;;;;;;;3.90;1.88;;;18.20;99.90;;;;;;5044143;28;20190;-64
2021/05/11 13:25:09;;;;;;;3.47;1.60;;;18.30;99.90;;;;;;5044121;28;20421;-61
2021/05/11 13:26:14;;;;;;;1.80;1.35;;;18.40;99.90;;;;;;5044569;28;20182;-63
2021/05/11 13:28:50;;;;;;;2.38;1.55;;;18.30;99.90;;;;;;5044713;28;20260;-63
2021/05/11 13:31:30;;;;;;;2.47;1.58;;;18.20;99.90;;;;;;5042324;28;20208;-64
2021/05/11 13:34:08;;;;;;;1.25;1.15;;;18.10;99.90;;;;;;5044015;28;21095;-63
2021/05/11 13:36:34;;;;;;;1.27;1.17;;;17.90;99.90;;;;;;5043373;28;20740;-63
2021/05/11 13:39:00;;;;;;;2.03;1.83;;;18.00;99.90;;;;;;5045064;28;20551;-64
2021/05/11 13:41:26;;;;;;;1.52;1.40;;;18.00;99.90;;;;;;5044591;28;20182;-62
2021/05/11 13:43:51;;;;;;;1.70;1.38;;;18.00;99.90;;;;;;5043005;28;20213;-63
2021/05/11 13:46:20;;;;;;;2.17;1.55;;;18.10;99.90;;;;;;5045287;28;20667;-61
2021/05/11 13:48:47;;;;;;;2.92;1.88;;;18.00;99.90;;;;;;5018090;28;20184;-61
2021/05/11 13:51:20;;;;;;;2.70;1.30;;;18.00;99.90;;;;;;5045080;28;20702;-61
2021/05/11 13:53:50;;;;;;;1.70;1.60;;;18.00;99.90;;;;;;5048774;28;20198;-62
2021/05/11 14:04:23;;;;;;;1.85;1.52;;;17.90;99.90;;;;;;5045195;28;20175;-61
2021/05/11 14:06:49;;;;;;;1.50;1.40;;;17.90;99.90;;;;;;5044220;28;20186;-63
2021/05/11 14:09:15;;;;;;;4.47;1.35;;;17.90;99.90;;;;;;5043858;28;20687;-63
2021/05/11 14:11:42;;;;;;;3.10;1.77;;;17.90;99.90;;;;;;5043710;28;20174;-62
2021/05/11 14:17:29;;;;;;;2.58;1.55;;;17.90;99.90;;;;;;5051099;28;20336;-63
2021/05/11 14:19:58;;;;;;;1.90;1.45;;;17.90;99.90;;;;;;5048285;28;20252;-65
2021/05/11 14:22:25;;;;;;;1.40;1.30;;;17.80;99.90;;;;;;5043597;28;20208;-62
2021/05/11 14:24:52;;;;;;;2.42;1.58;;;17.90;99.90;;;;;;5047125;28;20296;-62
2021/05/11 14:27:18;;;;;;;2.55;1.90;;;17.90;99.90;;;;;;5050017;28;20193;-62
2021/05/11 14:29:44;;;;;;;2.15;1.42;;;17.90;99.90;;;;;;5049695;28;20181;-61
2021/05/11 14:32:11;;;;;;;2.35;1.80;;;17.90;99.90;;;;;;5049579;28;20277;-63
2021/05/11 14:34:36;;;;;;;1.80;1.70;;;17.90;99.90;;;;;;5049850;28;20171;-62
2021/05/11 14:37:03;;;;;;;1.83;1.50;;;17.80;99.90;;;;;;5049551;28;20656;-64
2021/05/11 14:40:24;;;;;;;2.83;2.10;;;17.90;99.90;;;;;;5051515;28;20216;-63
2021/05/11 14:42:51;;;;;;;3.03;1.77;;;17.80;99.90;;;;;;5050370;28;20247;-62
2021/05/11 14:45:26;;;;;;;1.50;1.40;;;17.80;99.90;;;;;;5051843;28;20281;-63
2021/05/11 14:47:53;;;;;;;2.10;1.90;;;17.80;99.90;;;;;;5049798;28;20174;-64
2021/05/11 14:50:46;;;;;;;1.83;1.63;;;17.90;99.90;;;;;;5054377;28;20537;-63
2021/05/11 14:53:12;;;;;;;1.77;1.60;;;17.90;99.90;;;;;;5052859;28;20198;-63
2021/05/11 14:55:37;;;;;;;1.75;1.38;;;18.00;99.90;;;;;;5048188;28;20184;-64
2021/05/11 14:58:05;;;;;;;3.08;1.40;;;17.90;99.90;;;;;;5040558;28;20247;-62
2021/05/11 15:00:33;;;;;;;3.28;1.40;;;17.70;99.90;;;;;;5047996;28;21095;-61
2021/05/11 15:03:17;;;;;;;;;;;;;;;;;;;;;
2021/05/11 15:05:54;;;;;;;2.28;1.42;;;17.50;99.90;;;;;;5051288;28;20186;-62
2021/05/11 15:09:00;;;;;;;;;;;;;;;;;;;;;
2021/05/11 15:15:01;;;;;;;1.90;1.48;;;17.40;99.90;;;;;;5010076;23;20749;-78
2021/05/11 15:20:08;;;;;;;1.55;1.30;;;17.30;99.90;;;;;;4984526;28;20196;-76
2021/05/11 15:22:33;;;;;;;1.58;1.48;;;17.40;99.90;;;;;;4983871;28;20185;-77
2021/05/11 15:24:59;;;;;;;1.50;1.40;;;17.40;99.90;;;;;;4984757;28;20247;-79
2021/05/11 15:27:27;;;;;;;1.17;1.17;;;17.50;99.90;;;;;;4975847;28;20240;-79
2021/05/11 15:29:52;;;;;;;2.65;1.35;;;17.60;99.90;;;;;;4978959;28;20248;-78
2021/05/11 15:32:41;;;;;;;1.52;1.40;;;17.60;99.90;;;;;;4982277;28;20606;-79
2021/05/11 15:35:14;;;;;;;2.35;1.23;;;17.60;99.90;;;;;;4982884;28;20755;-78
2021/05/11 15:37:41;;;;;;;1.92;1.60;;;17.50;99.90;;;;;;4989588;28;20211;-78
2021/05/11 15:40:12;;;;;;;1.88;1.40;;;17.50;99.90;;;;;;4975106;28;20185;-79
2021/05/11 15:42:37;;;;;;;2.78;1.52;;;17.70;99.90;;;;;;4987606;28;20215;-76
2021/05/11 15:45:05;;;;;;;2.42;1.33;;;17.60;99.90;;;;;;4980804;28;20722;-78
2021/05/11 15:47:31;;;;;;;1.42;1.33;;;17.70;99.90;;;;;;4971027;28;20237;-78
2021/05/11 15:49:56;;;;;;;1.63;1.52;;;17.70;99.90;;;;;;4975244;28;20180;-78
2021/05/11 15:52:22;;;;;;;2.13;1.88;;;17.70;99.90;;;;;;4976770;28;20570;-77
2021/05/11 15:54:49;;;;;;;3.15;1.67;;;17.80;99.90;;;;;;4978258;28;20184;-79
2021/05/11 15:57:15;;;;;;;1.95;1.40;;;17.90;99.90;;;;;;4973321;28;20220;-78
2021/05/11 15:59:41;;;;;;;2.95;2.30;;;17.90;99.90;;;;;;4976408;28;20181;-78
2021/05/11 16:02:06;;;;;;;2.70;1.58;;;17.80;99.90;;;;;;4980209;28;20213;-76
2021/05/11 16:04:32;;;;;;;1.83;1.73;;;17.70;99.90;;;;;;4971096;28;20189;-77
2021/05/11 16:06:57;;;;;;;1.75;1.65;;;17.60;99.90;;;;;;4975281;28;20577;-78
2021/05/11 16:09:23;;;;;;;1.70;1.55;;;17.70;99.90;;;;;;4971828;28;20763;-78
2021/05/11 16:11:49;;;;;;;2.08;1.65;;;17.70;99.90;;;;;;4980815;28;20183;-78
2021/05/11 16:14:15;;;;;;;1.98;1.77;;;17.70;99.90;;;;;;4975876;28;20209;-78
2021/05/11 16:16:41;;;;;;;1.42;1.30;;;17.60;99.90;;;;;;4972065;28;20232;-77
2021/05/11 16:19:07;;;;;;;1.60;1.50;;;17.70;99.90;;;;;;4975181;28;20208;-77
2021/05/11 16:21:33;;;;;;;2.78;1.92;;;17.60;99.90;;;;;;4984899;28;20185;-78
2021/05/11 16:23:59;;;;;;;2.20;1.40;;;17.70;99.90;;;;;;4975375;28;20184;-78
2021/05/11 16:26:25;;;;;;;2.28;1.88;;;17.70;99.90;;;;;;4979465;28;20209;-75
2021/05/11 16:28:52;;;;;;;1.90;1.38;;;17.60;99.90;;;;;;4980199;28;20634;-78
2021/05/11 16:31:18;;;;;;;1.80;1.42;;;17.60;99.90;;;;;;4978505;28;20461;-77
2021/05/11 16:33:44;;;;;;;3.13;1.35;;;17.60;99.90;;;;;;4971358;28;20185;-78
2021/05/11 16:36:10;;;;;;;1.60;1.50;;;17.50;99.90;;;;;;4978868;28;20292;-78
2021/05/11 16:38:35;;;;;;;1.63;1.48;;;17.60;99.90;;;;;;4975267;28;20429;-79
2021/05/11 16:41:01;;;;;;;1.95;1.70;;;17.60;99.90;;;;;;4978956;28;20181;-79
2021/05/11 16:43:27;;;;;;;2.10;1.83;;;17.60;99.90;;;;;;4981799;28;20441;-78
2021/05/11 16:45:52;;;;;;;3.17;2.08;;;17.80;99.90;;;;;;4972569;28;20211;-79
2021/05/11 16:48:18;;;;;;;1.45;1.35;;;17.90;99.90;;;;;;4976032;28;20263;-78
2021/05/11 16:50:43;;;;;;;3.10;1.50;;;17.90;99.90;;;;;;4977833;28;20478;-80
2021/05/11 16:53:15;;;;;;;3.75;1.50;;;18.00;99.90;;;;;;4975973;28;20230;-78
2021/05/11 16:55:42;;;;;;;2.03;1.63;;;18.00;99.90;;;;;;4977450;28;20256;-78
2021/05/11 16:58:08;;;;;;;3.95;1.45;;;17.90;99.90;;;;;;4984028;28;20513;-78
2021/05/11 17:00:35;;;;;;;2.65;2.05;;;17.90;99.90;;;;;;4974658;28;20180;-78
2021/05/11 17:03:02;;;;;;;2.60;1.40;;;17.90;99.90;;;;;;4971021;28;20202;-77